Morristown Municipal Airport Morristown US
ICAO: KMMU
IATA: MMU
Category: Medium
Scheduled Services: No

Elevation: 187 ft
TransAlt. 18000 ft.

Airport Communications:
NEW YORK APP:127.6
ATIS:124.25
CLNC DEL:121.2
CTAF:118.1
NEW YORK DEP:119.2
GND:121.7
TWR:118.1

KMMU Zoom In..

If you have problems with the map follow the link
https://www.worldairports.se/pages/airport.php?
ICAO=KMMU

Runways:

(A) RW 05 length 5998 ft width 150 ft
---- / hdg 49

(B) RW 13 length 3997 ft width 150 ft
---- / hdg 127

(C) RW 23 length 5998 ft width 150 ft
ILS 110.30 / hdg 229

(D) RW 31 length 3997 ft width 150 ft
---- / hdg 307

Location; KMMU
Day. 14 / Time. 05.15 Zulu
* Altimeter: 29.86
* Temperature: 08° c. 46.4°f.
* Wind from: 350° Speed 03 kn.
Dewpoint: 08° c.
Visibility: 4 Statute Miles.
Clouds: Overcast 400 ft.
Conditions: Rain.

KMMU 140515Z AUTO 35003KT 4SM RA OVC004 08/08 A2986 RMK AO2 P0006


Wind From 350°
Speed 03 kn.

 
 
jpsmedia worldairports.se 2019   terms of use